Mackinaw River (Illinois), Congerville (05567500)

StateIllinoisLatestGood (1270 cfs)
RiverMackinaw RiverRatingObservedEstimated
Updated2020-02-25 15:45 (32 minutes ago)Flood - The river is flooding. Obstacles can be treacherous or deadly. The river should be avoided at this stage for casual trips and definitely for the inexperienced. Trips should be attempted only with protective gear and equipment.Flood(none)2127
Discharge1270 cfs (median: 390 cfs)High - The river is high and potentially dangerous, especially for the young and / or inexperienced. Normal stream obstacles are sometimes difficult to navigate. Extended distances can be attempted, but canoe travel may not be advisable.High30001075
Height4.48 feetGood - Conditions are ideal for a canoe or kayak. Boats typically will drag on fewer than one-quarter of riffles, if at all, and portages are unnecessary or rare. Normal float lengths can be attempted without a problem.Good(none)581
TrendRising (rising over 24 hours)Low - River is low but can still be floated. Some riffles are okay but most come with significant dragging and might need a portage. Float lengths should be reduced to accommodate low flow, dragging, and portages.Low(none)421
USGSExternal icon USGS Site (External icon Google Maps)Poor - River is too low to float comfortably. Most or all riffles will drag or must be portaged and some obstacles (such as slick shelf rock) cause undue problems. Avoid the river at this stage for casual paddling trips.Poor(none)44

Trending Data

Plot Image

Trips for Mackinaw River (Illinois), Congerville (05567500)

DateStartEndDistanceConditionDischargeHeightFishingDetails
Click for details2008-06-05 Cemetery (1700N South Road) Dee Mac Road Bridge Total trip distance: 7.0 miles7.0 High 3940 8.95 None NoneNone Fillmore, Brent
Fillmore, Brian
Fillmore, Rebecca
Fillmore, Tina
Fillmore, Brent; Fillmore, Brian; Fillmore, Rebecca; Fillmore, Tina
No notes for this trip<i>No notes for this trip</i> USGS Gauge Data:
Congerville (05567500)
Discharge: 3940
Height: 8.95
<b>USGS Gauge Data:</b></br />Congerville (05567500)<br />Discharge: 3940<br />Height: 8.95
Source: FillmoreSource: Fillmore

A total of 1 rows are displayed.

Trip Summary for Mackinaw River (Illinois), Congerville (05567500)

Miles7
Trips1
People4
Dates1
Years1
Months1
Rows1
Sources1

Condition Descriptions

Fishing Conditions

Fish Species

Notes

Classic Trip List

The classic River Trips application is still available for use. It is updated with the new system using a data retrofit. It is no longer maintained. The original River Trips application is no longer updated (as of 1 Dec 2016) but can be checked for errors or for the condition of the data before it was converted to the new system.

Gauge Data Table

ObservationHeightDischargeMaximum
Discharge
Minimum
Discharge
Mean
Discharge
P05P10P20P25P50
(Median)
P75P80P90P95
2020-02-25 15:45 4.48 1270 9390 (1985) 14 (1964) 906 22 71 169 182 390 960 1030 1980 4140
2020-02-25 14:45 4.40 1230 9390 (1985) 14 (1964) 906 22 71 169 182 390 960 1030 1980 4140
2020-02-25 13:45 4.33 1200 9390 (1985) 14 (1964) 906 22 71 169 182 390 960 1030 1980 4140
2020-02-25 12:45 4.27 1170 9390 (1985) 14 (1964) 906 22 71 169 182 390 960 1030 1980 4140
2020-02-25 11:45 4.20 1140 9390 (1985) 14 (1964) 906 22 71 169 182 390 960 1030 1980 4140
2020-02-25 10:45 4.14 1110 9390 (1985) 14 (1964) 906 22 71 169 182 390 960 1030 1980 4140
2020-02-25 09:45 4.07 1080 9390 (1985) 14 (1964) 906 22 71 169 182 390 960 1030 1980 4140
2020-02-25 08:45 4.00 1050 9390 (1985) 14 (1964) 906 22 71 169 182 390 960 1030 1980 4140
2020-02-25 07:45 3.93 1020 9390 (1985) 14 (1964) 906 22 71 169 182 390 960 1030 1980 4140
2020-02-25 06:45 3.85 985 9390 (1985) 14 (1964) 906 22 71 169 182 390 960 1030 1980 4140
2020-02-25 05:45 3.79 959 9390 (1985) 14 (1964) 906 22 71 169 182 390 960 1030 1980 4140
2020-02-25 04:45 3.71 925 9390 (1985) 14 (1964) 906 22 71 169 182 390 960 1030 1980 4140
2020-02-25 03:45 3.66 904 9390 (1985) 14 (1964) 906 22 71 169 182 390 960 1030 1980 4140
2020-02-25 02:45 3.60 879 9390 (1985) 14 (1964) 906 22 71 169 182 390 960 1030 1980 4140
2020-02-25 01:45 3.53 851 9390 (1985) 14 (1964) 906 22 71 169 182 390 960 1030 1980 4140
2020-02-25 00:45 3.49 835 9390 (1985) 14 (1964) 906 22 71 169 182 390 960 1030 1980 4140
2020-02-24 23:45 3.43 811 13000 (1985) 14 (1964) 987 26 72 154 203 450 1080 1180 2450 3890
2020-02-24 22:45 3.39 795 13000 (1985) 14 (1964) 987 26 72 154 203 450 1080 1180 2450 3890
2020-02-24 21:45 3.35 779 13000 (1985) 14 (1964) 987 26 72 154 203 450 1080 1180 2450 3890
2020-02-24 20:45 3.30 760 13000 (1985) 14 (1964) 987 26 72 154 203 450 1080 1180 2450 3890
2020-02-24 19:45 3.28 752 13000 (1985) 14 (1964) 987 26 72 154 203 450 1080 1180 2450 3890
2020-02-24 18:45 3.24 737 13000 (1985) 14 (1964) 987 26 72 154 203 450 1080 1180 2450 3890
2020-02-24 17:45 3.20 722 13000 (1985) 14 (1964) 987 26 72 154 203 450 1080 1180 2450 3890
2020-02-24 16:45 3.21 725 13000 (1985) 14 (1964) 987 26 72 154 203 450 1080 1180 2450 3890
2020-02-24 15:45 3.20 722 13000 (1985) 14 (1964) 987 26 72 154 203 450 1080 1180 2450 3890
2020-02-24 14:45 3.18 714 13000 (1985) 14 (1964) 987 26 72 154 203 450 1080 1180 2450 3890
2020-02-24 13:45 3.18 714 13000 (1985) 14 (1964) 987 26 72 154 203 450 1080 1180 2450 3890
2020-02-24 12:45 3.17 710 13000 (1985) 14 (1964) 987 26 72 154 203 450 1080 1180 2450 3890
2020-02-24 11:45 3.17 710 13000 (1985) 14 (1964) 987 26 72 154 203 450 1080 1180 2450 3890
2020-02-24 10:45 3.18 714 13000 (1985) 14 (1964) 987 26 72 154 203 450 1080 1180 2450 3890
2020-02-24 09:45 3.18 714 13000 (1985) 14 (1964) 987 26 72 154 203 450 1080 1180 2450 3890
2020-02-24 08:45 3.19 718 13000 (1985) 14 (1964) 987 26 72 154 203 450 1080 1180 2450 3890
2020-02-24 07:45 3.19 718 13000 (1985) 14 (1964) 987 26 72 154 203 450 1080 1180 2450 3890
2020-02-24 06:45 3.20 722 13000 (1985) 14 (1964) 987 26 72 154 203 450 1080 1180 2450 3890
2020-02-24 05:45 3.21 725 13000 (1985) 14 (1964) 987 26 72 154 203 450 1080 1180 2450 3890
2020-02-24 04:45 3.22 729 13000 (1985) 14 (1964) 987 26 72 154 203 450 1080 1180 2450 3890
2020-02-24 03:45 3.22 729 13000 (1985) 14 (1964) 987 26 72 154 203 450 1080 1180 2450 3890
2020-02-24 02:45 3.22 729 13000 (1985) 14 (1964) 987 26 72 154 203 450 1080 1180 2450 3890
2020-02-24 01:45 3.23 733 13000 (1985) 14 (1964) 987 26 72 154 203 450 1080 1180 2450 3890
2020-02-24 00:45 3.24 737 13000 (1985) 14 (1964) 987 26 72 154 203 450 1080 1180 2450 3890
2020-02-23 23:45 3.24 737 9400 (1985) 14 (1964) 1020 26 75 159 228 441 1110 1230 2980 4150
2020-02-23 22:45 3.24 737 9400 (1985) 14 (1964) 1020 26 75 159 228 441 1110 1230 2980 4150
2020-02-23 21:45 3.24 737 9400 (1985) 14 (1964) 1020 26 75 159 228 441 1110 1230 2980 4150
2020-02-23 20:45 3.26 744 9400 (1985) 14 (1964) 1020 26 75 159 228 441 1110 1230 2980 4150
2020-02-23 19:45 3.26 744 9400 (1985) 14 (1964) 1020 26 75 159 228 441 1110 1230 2980 4150
2020-02-23 18:45 3.26 744 9400 (1985) 14 (1964) 1020 26 75 159 228 441 1110 1230 2980 4150
2020-02-23 17:45 3.26 744 9400 (1985) 14 (1964) 1020 26 75 159 228 441 1110 1230 2980 4150
2020-02-23 16:45 3.25 741 9400 (1985) 14 (1964) 1020 26 75 159 228 441 1110 1230 2980 4150
2020-02-23 15:45 3.24 737 9400 (1985) 14 (1964) 1020 26 75 159 228 441 1110 1230 2980 4150
2020-02-23 14:45 3.24 737 9400 (1985) 14 (1964) 1020 26 75 159 228 441 1110 1230 2980 4150
2020-02-23 13:45 3.25 741 9400 (1985) 14 (1964) 1020 26 75 159 228 441 1110 1230 2980 4150
2020-02-23 12:45 3.28 752 9400 (1985) 14 (1964) 1020 26 75 159 228 441 1110 1230 2980 4150
2020-02-23 11:45 3.27 748 9400 (1985) 14 (1964) 1020 26 75 159 228 441 1110 1230 2980 4150
2020-02-23 10:45 3.26 744 9400 (1985) 14 (1964) 1020 26 75 159 228 441 1110 1230 2980 4150
2020-02-23 09:45 3.28 752 9400 (1985) 14 (1964) 1020 26 75 159 228 441 1110 1230 2980 4150
2020-02-23 08:45 3.27 748 9400 (1985) 14 (1964) 1020 26 75 159 228 441 1110 1230 2980 4150
2020-02-23 07:45 3.32 768 9400 (1985) 14 (1964) 1020 26 75 159 228 441 1110 1230 2980 4150
2020-02-23 06:45 3.35 779 9400 (1985) 14 (1964) 1020 26 75 159 228 441 1110 1230 2980 4150
2020-02-23 05:45 3.34 775 9400 (1985) 14 (1964) 1020 26 75 159 228 441 1110 1230 2980 4150
2020-02-23 04:45 3.36 783 9400 (1985) 14 (1964) 1020 26 75 159 228 441 1110 1230 2980 4150
2020-02-23 03:45 3.36 783 9400 (1985) 14 (1964) 1020 26 75 159 228 441 1110 1230 2980 4150
2020-02-23 02:45 3.37 787 9400 (1985) 14 (1964) 1020 26 75 159 228 441 1110 1230 2980 4150
2020-02-23 01:45 3.37 787 9400 (1985) 14 (1964) 1020 26 75 159 228 441 1110 1230 2980 4150
2020-02-23 00:45 3.37 787 9400 (1985) 14 (1964) 1020 26 75 159 228 441 1110 1230 2980 4150
2020-02-22 23:45 3.35 779 8310 (2014) 14 (1964) 947 29 40 152 215 459 931 1280 2530 4460
2020-02-22 22:45 3.36 783 8310 (2014) 14 (1964) 947 29 40 152 215 459 931 1280 2530 4460
2020-02-22 21:45 3.34 775 8310 (2014) 14 (1964) 947 29 40 152 215 459 931 1280 2530 4460
2020-02-22 20:45 3.36 783 8310 (2014) 14 (1964) 947 29 40 152 215 459 931 1280 2530 4460
2020-02-22 19:45 3.36 783 8310 (2014) 14 (1964) 947 29 40 152 215 459 931 1280 2530 4460
2020-02-22 18:45 3.37 787 8310 (2014) 14 (1964) 947 29 40 152 215 459 931 1280 2530 4460
2020-02-22 17:45 3.41 803 8310 (2014) 14 (1964) 947 29 40 152 215 459 931 1280 2530 4460
2020-02-22 16:45 3.39 795 8310 (2014) 14 (1964) 947 29 40 152 215 459 931 1280 2530 4460
2020-02-22 15:45 3.37 787 8310 (2014) 14 (1964) 947 29 40 152 215 459 931 1280 2530 4460
2020-02-22 14:45 3.39 795 8310 (2014) 14 (1964) 947 29 40 152 215 459 931 1280 2530 4460
2020-02-22 13:45 3.40 799 8310 (2014) 14 (1964) 947 29 40 152 215 459 931 1280 2530 4460
2020-02-22 12:45 3.42 807 8310 (2014) 14 (1964) 947 29 40 152 215 459 931 1280 2530 4460
2020-02-22 11:45 3.39 795 8310 (2014) 14 (1964) 947 29 40 152 215 459 931 1280 2530 4460
2020-02-22 10:45 3.42 807 8310 (2014) 14 (1964) 947 29 40 152 215 459 931 1280 2530 4460
2020-02-22 09:45 3.44 815 8310 (2014) 14 (1964) 947 29 40 152 215 459 931 1280 2530 4460
2020-02-22 08:45 3.46 823 8310 (2014) 14 (1964) 947 29 40 152 215 459 931 1280 2530 4460
2020-02-22 07:45 3.49 835 8310 (2014) 14 (1964) 947 29 40 152 215 459 931 1280 2530 4460
2020-02-22 06:45 3.50 839 8310 (2014) 14 (1964) 947 29 40 152 215 459 931 1280 2530 4460
2020-02-22 05:45 3.51 843 8310 (2014) 14 (1964) 947 29 40 152 215 459 931 1280 2530 4460
2020-02-22 04:45 3.49 835 8310 (2014) 14 (1964) 947 29 40 152 215 459 931 1280 2530 4460
2020-02-22 03:45 3.53 851 8310 (2014) 14 (1964) 947 29 40 152 215 459 931 1280 2530 4460
2020-02-22 02:45 3.52 847 8310 (2014) 14 (1964) 947 29 40 152 215 459 931 1280 2530 4460
2020-02-22 01:45 3.55 859 8310 (2014) 14 (1964) 947 29 40 152 215 459 931 1280 2530 4460
2020-02-22 00:45 3.56 863 8310 (2014) 14 (1964) 947 29 40 152 215 459 931 1280 2530 4460
2020-02-21 23:45 3.55 859 7300 (1951) 15 (1964) 874 25 41 152 200 395 954 1090 2440 3290
2020-02-21 22:45 3.56 863 7300 (1951) 15 (1964) 874 25 41 152 200 395 954 1090 2440 3290
2020-02-21 21:45 3.57 867 7300 (1951) 15 (1964) 874 25 41 152 200 395 954 1090 2440 3290
2020-02-21 20:45 3.58 871 7300 (1951) 15 (1964) 874 25 41 152 200 395 954 1090 2440 3290
2020-02-21 19:45 3.61 884 7300 (1951) 15 (1964) 874 25 41 152 200 395 954 1090 2440 3290
2020-02-21 18:45 3.64 896 7300 (1951) 15 (1964) 874 25 41 152 200 395 954 1090 2440 3290
2020-02-21 17:45 3.66 904 7300 (1951) 15 (1964) 874 25 41 152 200 395 954 1090 2440 3290
2020-02-21 16:45 3.66 904 7300 (1951) 15 (1964) 874 25 41 152 200 395 954 1090 2440 3290
2020-02-21 15:45 3.67 908 7300 (1951) 15 (1964) 874 25 41 152 200 395 954 1090 2440 3290
2020-02-21 14:45 3.69 917 7300 (1951) 15 (1964) 874 25 41 152 200 395 954 1090 2440 3290
2020-02-21 13:45 3.69 917 7300 (1951) 15 (1964) 874 25 41 152 200 395 954 1090 2440 3290
2020-02-21 12:45 3.70 921 7300 (1951) 15 (1964) 874 25 41 152 200 395 954 1090 2440 3290
2020-02-21 11:45 3.72 929 7300 (1951) 15 (1964) 874 25 41 152 200 395 954 1090 2440 3290
2020-02-21 10:45 3.74 938 7300 (1951) 15 (1964) 874 25 41 152 200 395 954 1090 2440 3290
2020-02-21 09:45 3.77 951 7300 (1951) 15 (1964) 874 25 41 152 200 395 954 1090 2440 3290
2020-02-21 08:45 3.77 951 7300 (1951) 15 (1964) 874 25 41 152 200 395 954 1090 2440 3290
2020-02-21 07:45 3.84 981 7300 (1951) 15 (1964) 874 25 41 152 200 395 954 1090 2440 3290
2020-02-21 06:45 3.88 998 7300 (1951) 15 (1964) 874 25 41 152 200 395 954 1090 2440 3290
2020-02-21 05:45 3.91 1010 7300 (1951) 15 (1964) 874 25 41 152 200 395 954 1090 2440 3290
2020-02-21 04:45 3.93 1020 7300 (1951) 15 (1964) 874 25 41 152 200 395 954 1090 2440 3290
2020-02-21 03:45 3.96 1030 7300 (1951) 15 (1964) 874 25 41 152 200 395 954 1090 2440 3290
2020-02-21 02:45 3.97 1040 7300 (1951) 15 (1964) 874 25 41 152 200 395 954 1090 2440 3290
2020-02-21 01:45 4.01 1050 7300 (1951) 15 (1964) 874 25 41 152 200 395 954 1090 2440 3290
2020-02-21 00:45 4.05 1070 7300 (1951) 15 (1964) 874 25 41 152 200 395 954 1090 2440 3290
2020-02-20 23:45 4.06 1080 9350 (1951) 16 (1964) 771 23 35 124 167 417 909 1110 1800 2530
2020-02-20 22:45 4.08 1090 9350 (1951) 16 (1964) 771 23 35 124 167 417 909 1110 1800 2530
2020-02-20 21:45 4.12 1100 9350 (1951) 16 (1964) 771 23 35 124 167 417 909 1110 1800 2530
2020-02-20 20:45 4.14 1110 9350 (1951) 16 (1964) 771 23 35 124 167 417 909 1110 1800 2530
2020-02-20 19:45 4.18 1130 9350 (1951) 16 (1964) 771 23 35 124 167 417 909 1110 1800 2530
2020-02-20 18:45 4.20 1140 9350 (1951) 16 (1964) 771 23 35 124 167 417 909 1110 1800 2530
2020-02-20 17:45 4.24 1160 9350 (1951) 16 (1964) 771 23 35 124 167 417 909 1110 1800 2530
2020-02-20 16:45 4.25 1160 9350 (1951) 16 (1964) 771 23 35 124 167 417 909 1110 1800 2530
2020-02-20 15:45 4.27 1170 9350 (1951) 16 (1964) 771 23 35 124 167 417 909 1110 1800 2530
2020-02-20 14:45 4.30 1190 9350 (1951) 16 (1964) 771 23 35 124 167 417 909 1110 1800 2530
2020-02-20 13:45 4.32 1200 9350 (1951) 16 (1964) 771 23 35 124 167 417 909 1110 1800 2530
2020-02-20 12:45 4.37 1220 9350 (1951) 16 (1964) 771 23 35 124 167 417 909 1110 1800 2530
2020-02-20 11:45 4.39 1230 9350 (1951) 16 (1964) 771 23 35 124 167 417 909 1110 1800 2530
2020-02-20 10:45 4.41 1240 9350 (1951) 16 (1964) 771 23 35 124 167 417 909 1110 1800 2530
2020-02-20 09:45 4.47 1270 9350 (1951) 16 (1964) 771 23 35 124 167 417 909 1110 1800 2530
2020-02-20 08:45 4.51 1290 9350 (1951) 16 (1964) 771 23 35 124 167 417 909 1110 1800 2530
2020-02-20 07:45 4.54 1300 9350 (1951) 16 (1964) 771 23 35 124 167 417 909 1110 1800 2530
2020-02-20 06:45 4.56 1310 9350 (1951) 16 (1964) 771 23 35 124 167 417 909 1110 1800 2530
2020-02-20 05:45 4.59 1330 9350 (1951) 16 (1964) 771 23 35 124 167 417 909 1110 1800 2530
2020-02-20 04:45 4.62 1340 9350 (1951) 16 (1964) 771 23 35 124 167 417 909 1110 1800 2530
2020-02-20 03:45 4.66 1360 9350 (1951) 16 (1964) 771 23 35 124 167 417 909 1110 1800 2530
2020-02-20 02:45 4.70 1380 9350 (1951) 16 (1964) 771 23 35 124 167 417 909 1110 1800 2530
2020-02-20 01:45 4.72 1390 9350 (1951) 16 (1964) 771 23 35 124 167 417 909 1110 1800 2530
2020-02-20 00:45 4.74 1400 9350 (1951) 16 (1964) 771 23 35 124 167 417 909 1110 1800 2530
2020-02-19 23:45 4.77 1420 12100 (1951) 17 (1964) 817 21 32 88 132 402 994 1130 2000 2430
2020-02-19 22:45 4.79 1430 12100 (1951) 17 (1964) 817 21 32 88 132 402 994 1130 2000 2430
2020-02-19 21:45 4.81 1440 12100 (1951) 17 (1964) 817 21 32 88 132 402 994 1130 2000 2430
2020-02-19 20:45 4.83 1450 12100 (1951) 17 (1964) 817 21 32 88 132 402 994 1130 2000 2430
2020-02-19 19:45 4.85 1460 12100 (1951) 17 (1964) 817 21 32 88 132 402 994 1130 2000 2430
2020-02-19 18:45 4.88 1470 12100 (1951) 17 (1964) 817 21 32 88 132 402 994 1130 2000 2430
2020-02-19 17:45 4.88 1470 12100 (1951) 17 (1964) 817 21 32 88 132 402 994 1130 2000 2430
2020-02-19 16:45 4.89 1480 12100 (1951) 17 (1964) 817 21 32 88 132 402 994 1130 2000 2430
2020-02-19 15:45 4.89 1480 12100 (1951) 17 (1964) 817 21 32 88 132 402 994 1130 2000 2430
2020-02-19 14:45 4.88 1470 12100 (1951) 17 (1964) 817 21 32 88 132 402 994 1130 2000 2430
2020-02-19 13:45 4.88 1470 12100 (1951) 17 (1964) 817 21 32 88 132 402 994 1130 2000 2430
2020-02-19 12:45 4.82 1440 12100 (1951) 17 (1964) 817 21 32 88 132 402 994 1130 2000 2430
2020-02-19 11:45 4.84 1450 12100 (1951) 17 (1964) 817 21 32 88 132 402 994 1130 2000 2430
2020-02-19 10:45 4.82 1440 12100 (1951) 17 (1964) 817 21 32 88 132 402 994 1130 2000 2430
2020-02-19 09:45 4.78 1420 12100 (1951) 17 (1964) 817 21 32 88 132 402 994 1130 2000 2430
2020-02-19 08:45 4.73 1400 12100 (1951) 17 (1964) 817 21 32 88 132 402 994 1130 2000 2430
2020-02-19 07:45 4.69 1380 12100 (1951) 17 (1964) 817 21 32 88 132 402 994 1130 2000 2430
2020-02-19 06:45 4.64 1350 12100 (1951) 17 (1964) 817 21 32 88 132 402 994 1130 2000 2430
2020-02-19 05:45 4.57 1320 12100 (1951) 17 (1964) 817 21 32 88 132 402 994 1130 2000 2430
2020-02-19 04:45 4.51 1290 12100 (1951) 17 (1964) 817 21 32 88 132 402 994 1130 2000 2430
2020-02-19 03:45 4.44 1250 12100 (1951) 17 (1964) 817 21 32 88 132 402 994 1130 2000 2430
2020-02-19 02:45 4.36 1220 12100 (1951) 17 (1964) 817 21 32 88 132 402 994 1130 2000 2430
2020-02-19 01:45 4.29 1180 12100 (1951) 17 (1964) 817 21 32 88 132 402 994 1130 2000 2430
2020-02-19 00:45 4.22 1150 12100 (1951) 17 (1964) 817 21 32 88 132 402 994 1130 2000 2430
2020-02-18 23:45 4.16 1120 7540 (2008) 13 (1963) 718 19 25 76 109 360 760 1100 1800 2540
2020-02-18 22:45 4.10 1100 7540 (2008) 13 (1963) 718 19 25 76 109 360 760 1100 1800 2540
2020-02-18 21:45 4.02 1060 7540 (2008) 13 (1963) 718 19 25 76 109 360 760 1100 1800 2540
2020-02-18 20:45 3.97 1040 7540 (2008) 13 (1963) 718 19 25 76 109 360 760 1100 1800 2540
2020-02-18 19:45 3.89 1000 7540 (2008) 13 (1963) 718 19 25 76 109 360 760 1100 1800 2540
2020-02-18 18:45 3.85 985 7540 (2008) 13 (1963) 718 19 25 76 109 360 760 1100 1800 2540
2020-02-18 17:45 3.80 963 7540 (2008) 13 (1963) 718 19 25 76 109 360 760 1100 1800 2540
2020-02-18 16:45 3.75 942 7540 (2008) 13 (1963) 718 19 25 76 109 360 760 1100 1800 2540
2020-02-18 15:45 3.70 921 7540 (2008) 13 (1963) 718 19 25 76 109 360 760 1100 1800 2540
2020-02-18 14:45 3.65 900 7540 (2008) 13 (1963) 718 19 25 76 109 360 760 1100 1800 2540
2020-02-18 13:45 3.59 875 7540 (2008) 13 (1963) 718 19 25 76 109 360 760 1100 1800 2540
2020-02-18 12:45 3.54 855 7540 (2008) 13 (1963) 718 19 25 76 109 360 760 1100 1800 2540
2020-02-18 11:45 3.52 847 7540 (2008) 13 (1963) 718 19 25 76 109 360 760 1100 1800 2540
2020-02-18 10:45 3.47 827 7540 (2008) 13 (1963) 718 19 25 76 109 360 760 1100 1800 2540
2020-02-18 09:45 3.42 807 7540 (2008) 13 (1963) 718 19 25 76 109 360 760 1100 1800 2540
2020-02-18 08:45 3.39 795 7540 (2008) 13 (1963) 718 19 25 76 109 360 760 1100 1800 2540
2020-02-18 07:45 3.35 779 7540 (2008) 13 (1963) 718 19 25 76 109 360 760 1100 1800 2540
2020-02-18 06:45 3.30 760 7540 (2008) 13 (1963) 718 19 25 76 109 360 760 1100 1800 2540
2020-02-18 05:45 3.26 744 7540 (2008) 13 (1963) 718 19 25 76 109 360 760 1100 1800 2540
2020-02-18 04:45 3.21 725 7540 (2008) 13 (1963) 718 19 25 76 109 360 760 1100 1800 2540
2020-02-18 03:45 3.16 707 7540 (2008) 13 (1963) 718 19 25 76 109 360 760 1100 1800 2540
2020-02-18 02:45 3.13 695 7540 (2008) 13 (1963) 718 19 25 76 109 360 760 1100 1800 2540
2020-02-18 01:45 3.09 681 7540 (2008) 13 (1963) 718 19 25 76 109 360 760 1100 1800 2540
2020-02-18 00:45 3.08 677 7540 (2008) 13 (1963) 718 19 25 76 109 360 760 1100 1800 2540

A total of 184 rows are displayed for years 1945 through 2019.